createdAt,value
2019-04-10T00:01:20.569Z,21.53
2019-04-10T00:03:51.413Z,23.37
2019-04-10T00:06:22.101Z,23.63
2019-04-10T00:08:53.160Z,23.10
2019-04-10T00:11:23.512Z,20.50
2019-04-10T00:13:53.956Z,19.90
2019-04-10T00:16:25.053Z,19.53
2019-04-10T00:18:56.133Z,21.77
2019-04-10T00:21:26.912Z,20.47
2019-04-10T00:23:57.710Z,18.80
2019-04-10T00:26:28.668Z,21.67
2019-04-10T00:29:00.223Z,19.07
2019-04-10T00:31:31.807Z,17.10
2019-04-10T00:34:02.872Z,17.70
2019-04-10T00:36:33.710Z,17.43
2019-04-10T00:39:04.640Z,17.33
2019-04-10T00:41:36.538Z,17.10
2019-04-10T00:44:07.829Z,17.93
2019-04-10T00:46:38.795Z,17.57
2019-04-10T00:49:09.630Z,17.63
2019-04-10T00:51:40.335Z,18.70
2019-04-10T00:54:11.919Z,18.00
2019-04-10T00:56:43.362Z,18.30
2019-04-10T00:59:14.429Z,18.90
2019-04-10T01:01:45.724Z,18.80
2019-04-10T01:04:16.505Z,18.80
2019-04-10T01:06:48.189Z,17.50
2019-04-10T01:09:19.477Z,19.87
2019-04-10T01:11:51.629Z,18.50
2019-04-10T01:14:23.395Z,19.20
2019-04-10T01:16:56.276Z,20.77
2019-04-10T01:19:26.710Z,21.13
2019-04-10T01:21:58.916Z,19.40
2019-04-10T01:24:30.054Z,20.87
2019-04-10T01:27:01.354Z,19.73
2019-04-10T01:29:32.260Z,23.43
2019-04-10T01:32:03.661Z,22.93
2019-04-10T01:34:35.807Z,21.53
2019-04-10T01:37:06.771Z,21.53
2019-04-10T01:39:38.098Z,21.10
2019-04-10T01:42:08.554Z,21.30
2019-04-10T01:44:40.646Z,22.10
2019-04-10T01:47:11.448Z,22.83
2019-04-10T01:49:42.218Z,21.00
2019-04-10T01:52:13.243Z,22.83
2019-04-10T01:54:45.508Z,23.90
2019-04-10T01:57:16.696Z,25.00
2019-04-10T01:59:47.907Z,23.77
2019-04-10T02:02:27.350Z,19.63
2019-04-10T02:04:58.464Z,20.03
2019-04-10T02:07:29.930Z,17.20
2019-04-10T02:10:01.629Z,17.87
2019-04-10T02:12:32.612Z,19.37
2019-04-10T02:15:03.507Z,15.80
2019-04-10T02:17:35.531Z,17.40
2019-04-10T02:20:08.158Z,17.30
2019-04-10T02:22:38.682Z,15.83
2019-04-10T02:25:11.601Z,14.83
2019-04-10T02:27:42.638Z,15.03
2019-04-10T02:30:17.561Z,15.83
2019-04-10T02:32:49.804Z,18.50
2019-04-10T02:35:22.064Z,18.30
2019-04-10T02:37:55.394Z,19.33
2019-04-10T02:40:25.582Z,20.87
2019-04-10T02:42:56.700Z,20.70
2019-04-10T02:45:27.349Z,21.40
2019-04-10T02:47:59.373Z,21.37
2019-04-10T02:50:31.272Z,22.77
2019-04-10T02:53:03.361Z,23.10
2019-04-10T02:55:35.580Z,22.60
2019-04-10T02:58:07.933Z,23.83
2019-04-10T03:00:38.771Z,20.37
2019-04-10T03:03:09.571Z,22.00
2019-04-10T03:05:40.643Z,22.67
2019-04-10T03:08:13.071Z,23.40
2019-04-10T03:10:51.770Z,31.90
2019-04-10T03:13:17.915Z,26.87
2019-04-10T03:15:49.842Z,22.73
2019-04-10T03:18:21.700Z,23.33
2019-04-10T03:20:52.625Z,23.00
2019-04-10T03:23:23.272Z,22.20
2019-04-10T03:25:54.072Z,22.63
2019-04-10T03:28:25.022Z,22.80
2019-04-10T03:30:58.072Z,21.23
2019-04-10T03:33:39.682Z,22.73
2019-04-10T03:36:09.562Z,24.17
2019-04-10T03:38:54.206Z,22.60
2019-04-10T03:41:13.749Z,23.60
2019-04-10T03:43:45.827Z,24.73
2019-04-10T03:46:19.368Z,22.90
2019-04-10T03:48:50.018Z,22.53
2019-04-10T03:51:20.777Z,21.80
2019-04-10T03:53:51.518Z,21.70
2019-04-10T03:56:23.395Z,23.50
2019-04-10T03:58:54.316Z,21.93
2019-04-10T04:01:26.952Z,22.00
2019-04-10T04:03:59.401Z,25.53
2019-04-10T04:06:30.040Z,22.20
2019-04-10T04:09:07.774Z,20.93
2019-04-10T04:11:34.705Z,22.00
2019-04-10T04:14:06.208Z,22.93
2019-04-10T04:16:37.400Z,21.83
2019-04-10T04:19:10.142Z,19.57
2019-04-10T04:21:41.836Z,19.30
2019-04-10T04:24:12.785Z,19.30
2019-04-10T04:26:43.737Z,18.80
2019-04-10T04:29:14.490Z,19.27
2019-04-10T04:31:45.226Z,18.17
2019-04-10T04:34:15.864Z,20.30
2019-04-10T04:36:48.915Z,21.63
2019-04-10T04:39:24.925Z,21.70
2019-04-10T04:41:52.127Z,21.13
2019-04-10T04:44:24.672Z,21.30
2019-04-10T04:46:55.275Z,22.97
2019-04-10T04:49:26.416Z,21.50
2019-04-10T04:51:58.149Z,23.73
2019-04-10T04:54:29.086Z,21.97
2019-04-10T04:57:00.220Z,23.50
2019-04-10T04:59:30.856Z,22.50
2019-04-10T05:02:03.620Z,24.63
2019-04-10T05:04:35.551Z,22.80
2019-04-10T05:07:08.373Z,21.73
2019-04-10T05:09:40.632Z,23.20
2019-04-10T05:12:11.581Z,21.63
2019-04-10T05:14:42.291Z,21.60
2019-04-10T05:17:15.084Z,20.90
2019-04-10T05:19:46.861Z,19.80
2019-04-10T05:22:18.747Z,20.93
2019-04-10T05:24:49.875Z,21.33
2019-04-10T05:27:20.577Z,21.57
2019-04-10T05:29:51.307Z,21.30
2019-04-10T05:32:23.357Z,20.70
2019-04-10T05:34:55.784Z,20.87
2019-04-10T05:37:33.785Z,18.97
2019-04-10T05:40:05.492Z,20.20
2019-04-10T05:42:37.419Z,22.10
2019-04-10T05:45:09.224Z,18.57
2019-04-10T05:47:40.272Z,17.70
2019-04-10T05:50:10.905Z,18.50
2019-04-10T05:52:41.648Z,17.60
2019-04-10T05:55:12.418Z,15.70
2019-04-10T05:57:43.025Z,17.73
2019-04-10T06:00:16.730Z,16.03
2019-04-10T06:02:48.154Z,17.60
2019-04-10T06:05:20.198Z,16.20
2019-04-10T06:07:51.623Z,15.70
2019-04-10T06:10:22.269Z,14.00
2019-04-10T06:12:53.109Z,14.43
2019-04-10T06:15:23.597Z,13.73
2019-04-10T06:17:54.510Z,13.57
2019-04-10T06:20:26.163Z,14.07
2019-04-10T06:22:56.956Z,15.30
2019-04-10T06:25:28.732Z,14.00
2019-04-10T06:28:01.096Z,14.33
2019-04-10T06:30:32.271Z,14.67
2019-04-10T06:33:04.038Z,14.40
2019-04-10T06:35:35.594Z,12.60
2019-04-10T06:38:06.463Z,10.73
2019-04-10T06:40:37.642Z,11.80
2019-04-10T06:43:08.661Z,12.67
2019-04-10T06:45:39.917Z,13.37
2019-04-10T06:48:12.973Z,12.70
2019-04-10T06:50:44.767Z,12.23
2019-04-10T06:53:18.546Z,14.43
2019-04-10T06:55:49.408Z,13.20
2019-04-10T06:58:20.124Z,15.33
2019-04-10T07:00:53.054Z,13.73
2019-04-10T07:03:23.395Z,14.10
2019-04-10T07:06:06.218Z,14.17
2019-04-10T07:08:27.639Z,14.90
2019-04-10T07:11:04.734Z,14.40
2019-04-10T07:13:30.687Z,14.50
2019-04-10T07:16:02.153Z,15.67
2019-04-10T07:18:35.792Z,15.00
2019-04-10T07:21:08.371Z,15.17
2019-04-10T07:23:39.231Z,15.73
2019-04-10T07:26:10.385Z,16.37
2019-04-10T07:28:43.950Z,17.53
2019-04-10T07:31:13.436Z,17.10
2019-04-10T07:33:45.147Z,19.00
2019-04-10T07:36:16.855Z,17.70
2019-04-10T07:38:47.249Z,16.17
2019-04-10T07:41:21.380Z,15.37
2019-04-10T07:43:55.065Z,15.63
2019-04-10T07:46:23.991Z,16.00
2019-04-10T07:48:54.639Z,15.63
2019-04-10T07:51:25.636Z,15.73
2019-04-10T07:53:56.266Z,15.30
2019-04-10T07:56:27.820Z,16.33
2019-04-10T07:58:58.517Z,16.90
2019-04-10T08:01:29.201Z,16.20
2019-04-10T08:07:31.725Z,16.53
2019-04-10T08:10:01.333Z,16.17
2019-04-10T08:12:39.510Z,16.03
2019-04-10T08:15:04.917Z,16.53
2019-04-10T08:17:36.732Z,15.83
2019-04-10T08:20:07.980Z,17.63
2019-04-10T08:22:39.305Z,15.03
2019-04-10T08:25:10.941Z,16.20
2019-04-10T08:27:41.813Z,15.07
2019-04-10T08:30:12.973Z,16.30
2019-04-10T08:32:53.524Z,15.97
2019-04-10T08:35:17.353Z,14.83
2019-04-10T08:37:48.721Z,16.47
2019-04-10T08:40:21.061Z,15.87
2019-04-10T08:42:52.681Z,17.70
2019-04-10T08:45:23.500Z,16.10
2019-04-10T08:47:54.297Z,15.23
2019-04-10T08:50:26.002Z,16.70
2019-04-10T08:52:57.924Z,16.83
2019-04-10T08:55:28.509Z,15.07
2019-04-10T08:58:00.773Z,17.70
2019-04-10T09:00:32.355Z,17.97
2019-04-10T09:03:02.799Z,21.67
2019-04-10T09:05:33.469Z,21.00
2019-04-10T09:08:04.561Z,18.50
2019-04-10T09:10:35.046Z,22.00
2019-04-10T09:13:06.586Z,19.17
2019-04-10T09:15:38.215Z,17.60
2019-04-10T09:18:11.229Z,17.57
2019-04-10T09:20:42.694Z,17.97
2019-04-10T09:23:26.295Z,17.97
2019-04-10T09:25:49.150Z,17.20
2019-04-10T09:28:19.831Z,16.20
2019-04-10T09:30:51.323Z,16.50
2019-04-10T09:33:26.742Z,17.90
2019-04-10T09:35:55.088Z,17.67
2019-04-10T09:38:26.589Z,17.70
2019-04-10T09:40:57.360Z,16.33
2019-04-10T09:43:27.955Z,16.00
2019-04-10T09:45:58.700Z,14.43
2019-04-10T09:48:29.268Z,15.10
2019-04-10T09:51:00.265Z,15.50
2019-04-10T09:53:30.914Z,14.77
2019-04-10T09:56:01.487Z,15.40
2019-04-10T09:58:32.022Z,15.50
2019-04-10T10:01:04.842Z,14.90
2019-04-10T10:03:36.634Z,15.30
2019-04-10T10:06:07.432Z,16.17
2019-04-10T10:08:38.085Z,15.63
2019-04-10T10:11:09.590Z,14.30
2019-04-10T10:13:40.173Z,13.40
2019-04-10T10:16:11.182Z,13.40
2019-04-10T10:18:41.815Z,13.30
2019-04-10T10:21:12.478Z,14.80
2019-04-10T10:23:44.687Z,14.07
2019-04-10T10:26:15.857Z,13.20
2019-04-10T10:28:47.099Z,12.07
2019-04-10T10:31:18.279Z,12.07
2019-04-10T10:33:50.036Z,13.33
2019-04-10T10:36:22.030Z,12.73
2019-04-10T10:39:03.588Z,12.53
2019-04-10T10:41:26.414Z,12.80
2019-04-10T10:43:57.115Z,13.30
2019-04-10T10:46:27.688Z,12.87
2019-04-10T10:48:58.111Z,10.80
2019-04-10T10:51:28.941Z,11.90
2019-04-10T10:54:03.108Z,12.03
2019-04-10T10:56:34.147Z,13.53
2019-04-10T10:59:06.106Z,14.30
2019-04-10T11:01:37.965Z,12.00
2019-04-10T11:04:08.852Z,13.70
2019-04-10T11:06:51.539Z,12.40
2019-04-10T11:09:15.770Z,10.07
2019-04-10T11:11:47.096Z,12.40
2019-04-10T11:14:17.646Z,13.60
2019-04-10T11:16:49.488Z,12.70
2019-04-10T11:19:21.129Z,15.33
2019-04-10T11:21:51.556Z,14.70
2019-04-10T11:24:23.192Z,14.53
2019-04-10T11:26:54.043Z,14.33
2019-04-10T11:29:24.762Z,16.50
2019-04-10T11:31:55.698Z,17.70
2019-04-10T11:34:26.527Z,14.73
2019-04-10T11:39:33.079Z,16.10
2019-04-10T11:42:02.396Z,15.90
2019-04-10T11:44:34.754Z,15.60
2019-04-10T11:47:09.509Z,15.60
2019-04-10T11:49:44.388Z,15.67
2019-04-10T11:52:14.579Z,16.43
2019-04-10T11:54:46.901Z,18.27
2019-04-10T11:57:20.428Z,19.17
2019-04-10T11:59:51.019Z,17.80
2019-04-10T12:02:25.003Z,16.60
2019-04-10T12:04:59.191Z,19.07
2019-04-10T12:07:55.024Z,15.40
2019-04-10T12:12:31.837Z,18.40
2019-04-10T12:15:03.886Z,17.10
2019-04-10T12:17:36.052Z,15.70
2019-04-10T12:20:08.902Z,14.70
2019-04-10T12:22:40.596Z,14.20
2019-04-10T12:25:12.377Z,15.90
2019-04-10T12:27:43.376Z,14.60
2019-04-10T12:30:15.288Z,14.10
2019-04-10T12:32:47.492Z,13.40
2019-04-10T12:35:18.075Z,11.70
2019-04-10T12:37:57.827Z,14.23
2019-04-10T12:40:21.518Z,14.13
2019-04-10T12:42:52.493Z,14.30
2019-04-10T12:45:24.327Z,14.30
2019-04-10T12:47:54.942Z,16.83
2019-04-10T12:50:25.277Z,16.20
2019-04-10T12:52:56.694Z,14.57
2019-04-10T12:55:28.322Z,15.73
2019-04-10T12:58:06.538Z,15.93
2019-04-10T13:00:34.479Z,16.23
2019-04-10T13:03:05.515Z,14.27
2019-04-10T13:05:37.521Z,15.03
2019-04-10T13:08:19.124Z,14.60
2019-04-10T13:10:45.585Z,12.20
2019-04-10T13:13:16.022Z,14.63
2019-04-10T13:15:47.693Z,12.60
2019-04-10T13:18:20.451Z,16.20
2019-04-10T13:20:50.973Z,12.67
2019-04-10T13:23:22.488Z,12.77
2019-04-10T13:25:58.365Z,12.20
2019-04-10T13:28:27.646Z,12.90
2019-04-10T13:30:59.507Z,12.90
2019-04-10T13:33:30.963Z,14.00
2019-04-10T13:36:01.379Z,14.70
2019-04-10T13:38:33.906Z,13.70
2019-04-10T13:41:04.649Z,13.63
2019-04-10T13:43:38.081Z,12.43
2019-04-10T13:46:09.192Z,12.40
2019-04-10T13:48:39.815Z,13.20
2019-04-10T13:51:11.126Z,12.80
2019-04-10T13:53:42.429Z,13.77
2019-04-10T13:56:13.030Z,13.33
2019-04-10T13:58:44.581Z,13.30
2019-04-10T14:01:20.569Z,11.80
2019-04-10T14:03:52.430Z,12.70
2019-04-10T14:06:23.071Z,13.20
2019-04-10T14:09:07.790Z,12.60
2019-04-10T14:11:27.048Z,11.13
2019-04-10T14:13:57.764Z,11.43
2019-04-10T14:16:28.787Z,10.87
2019-04-10T14:18:59.390Z,11.43
2019-04-10T14:21:31.135Z,11.60
2019-04-10T14:24:04.089Z,12.60
2019-04-10T14:26:58.026Z,12.00
2019-04-10T14:29:30.138Z,12.17
2019-04-10T14:32:03.356Z,11.13
2019-04-10T14:34:34.515Z,11.20
2019-04-10T14:37:07.296Z,10.63
2019-04-10T14:39:37.736Z,12.00
2019-04-10T14:42:10.575Z,11.77
2019-04-10T14:44:41.074Z,10.07
2019-04-10T14:47:13.420Z,11.03
2019-04-10T14:49:45.154Z,10.30
2019-04-10T14:52:17.179Z,9.50
2019-04-10T14:54:48.306Z,10.00
2019-04-10T14:57:20.967Z,10.27
2019-04-10T14:59:52.535Z,8.93
2019-04-10T15:02:24.404Z,8.40
2019-04-10T15:04:56.002Z,8.03
2019-04-10T15:07:26.809Z,9.00
2019-04-10T15:09:58.105Z,8.53
2019-04-10T15:12:30.138Z,7.93
2019-04-10T15:15:01.736Z,6.90
2019-04-10T15:17:32.909Z,8.40
2019-04-10T15:20:05.687Z,9.60
2019-04-10T15:22:36.416Z,7.90
2019-04-10T15:25:08.845Z,6.63
2019-04-10T15:27:39.645Z,8.23
2019-04-10T15:30:10.549Z,8.60
2019-04-10T15:32:42.155Z,8.33
2019-04-10T15:35:12.981Z,6.93
2019-04-10T15:37:43.312Z,7.60
2019-04-10T15:40:20.806Z,6.30
2019-04-10T15:42:48.665Z,6.90
2019-04-10T15:45:19.672Z,7.37
2019-04-10T15:47:54.138Z,6.60
2019-04-10T15:50:22.844Z,7.27
2019-04-10T15:52:53.736Z,6.10
2019-04-10T15:55:25.783Z,6.47
2019-04-10T15:57:59.126Z,6.77
2019-04-10T16:00:29.463Z,7.07
2019-04-10T16:03:00.757Z,6.70
2019-04-10T16:05:31.508Z,6.53
2019-04-10T16:08:02.974Z,7.90
2019-04-10T16:10:55.149Z,7.90
2019-04-10T16:13:57.004Z,8.03
2019-04-10T16:16:50.835Z,7.47
2019-04-10T16:19:51.400Z,6.63
2019-04-10T16:22:51.111Z,6.13
2019-04-10T16:25:31.184Z,8.00
2019-04-10T16:28:04.134Z,10.17
2019-04-10T16:30:35.343Z,7.43
2019-04-10T16:33:07.218Z,7.80
2019-04-10T16:35:38.390Z,8.03
2019-04-10T16:38:09.296Z,10.10
2019-04-10T16:40:40.485Z,11.60
2019-04-10T16:43:11.733Z,11.47
2019-04-10T16:45:42.622Z,12.20
2019-04-10T16:48:14.774Z,11.83
2019-04-10T16:50:45.839Z,15.23
2019-04-10T16:53:18.028Z,16.30
2019-04-10T16:55:49.939Z,16.67
2019-04-10T16:58:20.726Z,14.40
2019-04-10T17:00:51.182Z,12.50
2019-04-10T17:03:21.862Z,17.90
2019-04-10T17:05:53.629Z,18.83
2019-04-10T17:08:24.734Z,20.77
2019-04-10T17:10:57.076Z,24.93
2019-04-10T17:13:28.779Z,27.83
2019-04-10T17:16:01.629Z,23.80
2019-04-10T17:18:32.942Z,30.63
2019-04-10T17:21:04.785Z,29.60
2019-04-10T17:23:36.427Z,30.87
2019-04-10T17:26:08.684Z,31.37
2019-04-10T17:28:40.719Z,29.70
2019-04-10T17:31:11.529Z,28.57
2019-04-10T17:33:43.924Z,26.27
2019-04-10T17:36:14.407Z,24.10
2019-04-10T17:38:46.799Z,23.80
2019-04-10T17:41:17.727Z,22.23
2019-04-10T17:43:49.538Z,22.27
2019-04-10T17:46:20.375Z,22.20
2019-04-10T17:48:51.659Z,21.57
2019-04-10T17:51:22.704Z,20.23
2019-04-10T17:53:53.999Z,23.00
2019-04-10T17:56:24.370Z,24.47
2019-04-10T17:58:56.060Z,29.17
2019-04-10T18:01:27.660Z,33.00
2019-04-10T18:04:01.775Z,43.60
2019-04-10T18:06:31.433Z,46.00
2019-04-10T18:09:02.294Z,41.97
2019-04-10T18:11:34.637Z,45.70
2019-04-10T18:14:06.923Z,32.80
2019-04-10T18:16:40.036Z,30.57
2019-04-10T18:19:14.142Z,27.53
2019-04-10T18:21:44.363Z,32.00
2019-04-10T18:24:15.788Z,33.97
2019-04-10T18:26:50.475Z,35.83
2019-04-10T18:29:21.407Z,36.83
2019-04-10T18:31:52.185Z,41.40
2019-04-10T18:34:22.853Z,40.73
2019-04-10T18:36:54.568Z,46.33
2019-04-10T18:39:26.153Z,44.10
2019-04-10T18:41:59.321Z,32.27
2019-04-10T18:44:29.124Z,32.67
2019-04-10T18:47:00.667Z,29.13
2019-04-10T18:49:31.721Z,29.30
2019-04-10T18:52:03.349Z,34.83
2019-04-10T18:54:34.092Z,36.57
2019-04-10T18:57:05.364Z,44.47
2019-04-10T18:59:44.865Z,48.57
2019-04-10T19:02:34.902Z,47.47
2019-04-10T19:05:31.845Z,48.70
2019-04-10T19:08:03.189Z,46.50
2019-04-10T19:10:38.922Z,35.50
2019-04-10T19:13:09.702Z,31.30
2019-04-10T19:15:41.633Z,27.90
2019-04-10T19:18:13.274Z,31.93
2019-04-10T19:20:43.892Z,30.77
2019-04-10T19:23:14.977Z,29.80
2019-04-10T19:25:46.997Z,36.00
2019-04-10T19:28:28.015Z,29.80
2019-04-10T19:31:09.640Z,30.90
2019-04-10T19:33:28.990Z,32.23
2019-04-10T19:35:59.695Z,42.40
2019-04-10T19:38:31.510Z,45.87
2019-04-10T19:41:02.656Z,37.17
2019-04-10T19:43:34.484Z,35.17
2019-04-10T19:46:06.184Z,33.00
2019-04-10T19:48:36.933Z,31.73
2019-04-10T19:51:08.049Z,32.03
2019-04-10T19:53:39.513Z,30.93
2019-04-10T19:56:10.932Z,23.60
2019-04-10T19:58:41.903Z,26.00
2019-04-10T20:01:12.782Z,24.60
2019-04-10T20:03:43.858Z,25.57
2019-04-10T20:06:14.395Z,26.10
2019-04-10T20:08:45.954Z,24.67
2019-04-10T20:11:16.992Z,23.97
2019-04-10T20:13:47.414Z,23.73
2019-04-10T20:16:17.919Z,21.93
2019-04-10T20:18:48.723Z,26.23
2019-04-10T20:21:19.651Z,24.60
2019-04-10T20:23:50.495Z,25.47
2019-04-10T20:26:21.093Z,26.30
2019-04-10T20:28:51.856Z,21.23
2019-04-10T20:31:29.292Z,23.40
2019-04-10T20:34:00.260Z,22.93
2019-04-10T20:36:31.182Z,23.80
2019-04-10T20:39:03.060Z,23.70
2019-04-10T20:41:44.789Z,23.50
2019-04-10T20:44:07.263Z,23.93
2019-04-10T20:46:38.200Z,23.00
2019-04-10T20:49:09.907Z,23.67
2019-04-10T20:51:44.069Z,23.70
2019-04-10T20:54:14.836Z,23.53
2019-04-10T20:56:45.147Z,23.77
2019-04-10T20:59:15.642Z,25.33
2019-04-10T21:01:47.009Z,24.63
2019-04-10T21:04:17.586Z,24.63
2019-04-10T21:06:48.212Z,26.43
2019-04-10T21:09:19.133Z,24.90
2019-04-10T21:11:59.731Z,25.97
2019-04-10T21:14:21.829Z,27.30
2019-04-10T21:16:52.529Z,26.70
2019-04-10T21:19:24.756Z,29.80
2019-04-10T21:21:55.881Z,29.13
2019-04-10T21:24:27.434Z,30.70
2019-04-10T21:26:59.053Z,30.80
2019-04-10T21:30:03.880Z,31.17
2019-04-10T21:32:49.987Z,32.00
2019-04-10T21:35:25.339Z,35.47
2019-04-10T21:37:56.919Z,36.50
2019-04-10T21:40:27.386Z,37.70
2019-04-10T21:42:58.264Z,36.60
2019-04-10T21:45:29.838Z,35.60
2019-04-10T21:48:00.511Z,39.80
2019-04-10T21:50:31.472Z,33.03
2019-04-10T21:53:01.980Z,36.40
2019-04-10T21:55:32.856Z,32.70
2019-04-10T21:58:03.882Z,29.10
2019-04-10T22:00:52.653Z,32.33
2019-04-10T22:03:23.739Z,29.40
2019-04-10T22:06:05.699Z,30.17
2019-04-10T22:08:41.913Z,27.80
2019-04-10T22:11:12.826Z,23.93
2019-04-10T22:13:44.443Z,27.10
2019-04-10T22:16:17.873Z,25.83
2019-04-10T22:18:48.431Z,24.57
2019-04-10T22:21:18.676Z,27.40
2019-04-10T22:23:49.285Z,26.43
2019-04-10T22:26:20.067Z,33.00
2019-04-10T22:28:50.560Z,35.90
2019-04-10T22:31:21.159Z,35.60
2019-04-10T22:33:52.349Z,34.30
2019-04-10T22:36:23.021Z,29.50
2019-04-10T22:38:55.120Z,32.50
2019-04-10T22:41:30.636Z,26.70
2019-04-10T22:43:58.364Z,30.67
2019-04-10T22:46:29.942Z,30.30
2019-04-10T22:49:00.572Z,27.10
2019-04-10T22:51:31.180Z,29.13
2019-04-10T22:54:02.554Z,26.77
2019-04-10T22:56:33.675Z,24.07
2019-04-10T22:59:05.941Z,24.87
2019-04-10T23:01:37.602Z,24.90
2019-04-10T23:04:08.191Z,25.50
2019-04-10T23:06:39.648Z,20.20
2019-04-10T23:09:12.232Z,20.30
2019-04-10T23:11:45.378Z,18.27
2019-04-10T23:14:14.808Z,17.53
2019-04-10T23:16:46.100Z,17.63
2019-04-10T23:19:16.842Z,17.70
2019-04-10T23:21:49.064Z,19.20
2019-04-10T23:24:19.896Z,17.80
2019-04-10T23:26:50.642Z,18.60
2019-04-10T23:29:22.346Z,17.17
2019-04-10T23:31:54.260Z,18.00
2019-04-10T23:34:26.173Z,16.90
2019-04-10T23:36:56.754Z,18.90
2019-04-10T23:39:28.207Z,17.53
2019-04-10T23:41:59.069Z,18.10
2019-04-10T23:44:29.696Z,19.60
2019-04-10T23:47:00.380Z,17.20
2019-04-10T23:49:30.969Z,15.80
2019-04-10T23:52:01.477Z,18.90
2019-04-10T23:54:33.241Z,18.60
2019-04-10T23:57:03.819Z,14.07
2019-04-10T23:59:35.034Z,15.70
